Hovedside
METAR-TAF:

METAR-TAF

Lufthavner :

Hurghada internasjonale lufthavn

Hurghada, Egypt

breddegrad: 27-09N, lengdegrad: 033-43E, høyde over havet: 16 m

Gjeldene værobservasjon

Denne rapporten ble laget for 36 minutter siden, klokken 09:00 UTC
Vind 14 kt fra Nord
Temperatur 33°C
Luftfuktighet 20%
Trykk 1011 hPa
Sikt 10 km eller mer
ingen skyer under 1500 m og ingen bygeskyer

METAR: HEGN 250900Z 36014KT CAVOK 33/07 Q1011 NOSIG

Tid: 11:36 (09:36 UTC)

Varsel

Denne rapporten ble laget for 4 timer og 36 minutter siden, klokken 05:00 UTC
Varsel gyldig fra 25. klokken 06 UTC til 26. klokken 12 UTC
Vind 12 kt fra Nord-nordvest
Sikt 10 km eller mer
ingen skyer under 1500 m og ingen bygeskyer

TAF: HEGN 250500Z 2506/2612 34012KT CAVOK

Værobservasjoner og værvarsel for over 4000 flyplasser (METAR- og TAF-rapporter).

Tilgjengelige stasjoner er representert av de røde og gule prikkene på kartet.

Hold musepekeren over prikken for å se navnet på stasjonen.

Klikk så for å se værobservasjoner og -varsler.

For å forandre kartet kan du klikke på den grønne knappen med svart kryss for å zoome inn, på den grønne knappen med strek for å zoome ut, eller på de grønne pilene for å se tilstøtende kart.


METAR-TAF: